東京理科大学Ⅰ部体育局航空部

このエントリーをはてなブックマークに追加

ようこそ、理科大航空部HPへ! ここでは、航空部に関する情報や、活動などをお知らせしています。


METAR・TAF

TOKYO INTERNATIONAL
Metar
RJTT 171430Z 19011KT 9999 FEW015 SCT/// 29/25 Q1004 NOSIG RMK 1CU015 A2965

14:30 UTC

Wind: 190° 11kt

Visibility: 9999 m

Sky: FEW 1500 ft

Temp: 29 deg C / 84.2 deg F

Dewpoint: 25 deg C / 77 deg F

Pressure: 1004 hPa

TAF
TAF RJTT 171105Z 1712/1818 20014KT 9999 FEW010 BECMG 1715/1717 02008KT BECMG 1800/1803 08005KT BECMG 1806/1809 20010KT BECMG 1815/1818 02005KT
NARITA INTERNATIONAL
Metar
RJAA 171430Z 14002KT 7000 FEW030 25/24 Q1004 NOSIG RMK 1CU030 A2967

14:30 UTC

Wind: 140° 2kt

Visibility: 7000 m

Sky: FEW 3000 ft

Temp: 25 deg C / 77 deg F

Dewpoint: 24 deg C / 75.2 deg F

Pressure: 1004 hPa

TAF
TAF RJAA 171106Z 1712/1818 16004KT 9999 FEW015 BECMG 1720/1722 02006KT